Martins Creek, Pennsylvania
Current Conditions -  °F | °C
As of 2:51 PM on Wednesday 28 Jan 2015 (Local Time) from KABE Reporting Station
Clear Clear  
Wind Chill: 20°   Ceiling: Unl
Heat Index: 31°   Visibility: 10mi
Dew Point:   Wind: 16mph
Humidity: 32%   Direction: 330°NNW
Pressure: 30.12"   Gusts: 23mph
Location:  40.78°N, 75.19°W
Report Text: KABE 281951Z 33014G20KT 10SM CLR M01/M16 A3012 RMK AO2 SLP205 T10061156
Loading
Personal Weather Stations






























Interactive Weather Map New forecast layout! Learn more

10-Day Weather Forecast

Advertisements
Track Severe Weather on mobile